createdAt,value
2019-04-03T00:01:07.935Z,16.67
2019-04-03T00:03:36.911Z,17.77
2019-04-03T00:06:06.186Z,17.90
2019-04-03T00:08:36.649Z,17.80
2019-04-03T00:11:08.659Z,17.37
2019-04-03T00:13:36.036Z,17.63
2019-04-03T00:16:05.082Z,19.47
2019-04-03T00:18:33.913Z,16.50
2019-04-03T00:21:02.621Z,17.73
2019-04-03T00:23:31.413Z,18.23
2019-04-03T00:26:00.161Z,18.67
2019-04-03T00:28:29.113Z,19.27
2019-04-03T00:30:58.055Z,18.20
2019-04-03T00:33:26.774Z,17.80
2019-04-03T00:35:55.560Z,18.23
2019-04-03T00:38:24.743Z,19.10
2019-04-03T00:40:54.254Z,19.73
2019-04-03T00:43:24.748Z,19.80
2019-04-03T00:45:55.114Z,18.47
2019-04-03T00:48:25.700Z,19.43
2019-04-03T00:50:57.313Z,20.37
2019-04-03T00:53:25.916Z,19.40
2019-04-03T00:55:56.514Z,19.80
2019-04-03T00:58:39.900Z,18.57
2019-04-03T01:01:10.934Z,18.50
2019-04-03T01:03:40.537Z,20.60
2019-04-03T01:06:09.736Z,19.93
2019-04-03T01:08:38.618Z,19.50
2019-04-03T01:11:07.711Z,20.03
2019-04-03T01:13:36.688Z,20.53
2019-04-03T01:16:06.007Z,19.93
2019-04-03T01:18:35.463Z,20.77
2019-04-03T01:21:06.888Z,20.53
2019-04-03T01:23:37.420Z,19.93
2019-04-03T01:26:06.055Z,20.10
2019-04-03T01:28:34.793Z,19.83
2019-04-03T01:31:03.865Z,20.33
2019-04-03T01:33:32.863Z,19.87
2019-04-03T01:36:01.859Z,19.93
2019-04-03T01:38:30.584Z,18.90
2019-04-03T01:40:59.608Z,20.17
2019-04-03T01:43:28.375Z,19.53
2019-04-03T01:45:57.334Z,20.57
2019-04-03T01:48:26.877Z,21.07
2019-04-03T01:50:59.226Z,19.20
2019-04-03T01:53:26.943Z,19.53
2019-04-03T01:55:55.918Z,19.47
2019-04-03T01:58:24.884Z,20.13
2019-04-03T02:00:54.250Z,20.87
2019-04-03T02:03:22.973Z,20.20
2019-04-03T02:05:52.171Z,20.23
2019-04-03T02:08:21.435Z,21.13
2019-04-03T02:10:50.363Z,20.87
2019-04-03T02:13:21.157Z,21.37
2019-04-03T02:15:52.139Z,20.47
2019-04-03T02:18:20.309Z,20.73
2019-04-03T02:20:49.371Z,21.07
2019-04-03T02:23:18.384Z,20.77
2019-04-03T02:25:47.098Z,21.37
2019-04-03T02:28:16.042Z,20.80
2019-04-03T02:30:46.704Z,19.93
2019-04-03T02:33:16.424Z,19.17
2019-04-03T02:35:45.921Z,21.27
2019-04-03T02:38:14.921Z,21.73
2019-04-03T02:40:44.010Z,20.60
2019-04-03T02:43:14.117Z,21.43
2019-04-03T02:45:43.532Z,19.90
2019-04-03T02:48:12.826Z,20.50
2019-04-03T02:50:42.218Z,20.57
2019-04-03T02:53:11.105Z,20.83
2019-04-03T02:55:40.983Z,19.93
2019-04-03T02:58:10.115Z,20.13
2019-04-03T03:00:39.112Z,20.20
2019-04-03T03:03:07.899Z,21.20
2019-04-03T03:05:36.921Z,20.57
2019-04-03T03:08:08.257Z,20.67
2019-04-03T03:10:37.812Z,20.87
2019-04-03T03:13:07.169Z,21.23
2019-04-03T03:15:36.814Z,20.53
2019-04-03T03:18:05.997Z,20.50
2019-04-03T03:20:39.805Z,20.87
2019-04-03T03:23:07.366Z,22.03
2019-04-03T03:25:36.177Z,22.33
2019-04-03T03:28:05.342Z,22.37
2019-04-03T03:30:43.280Z,21.80
2019-04-03T03:33:30.064Z,22.17
2019-04-03T03:35:41.421Z,22.80
2019-04-03T03:38:08.419Z,22.27
2019-04-03T03:40:38.264Z,21.93
2019-04-03T03:43:08.601Z,22.03
2019-04-03T03:45:38.265Z,21.97
2019-04-03T03:48:10.438Z,21.80
2019-04-03T03:50:39.111Z,23.07
2019-04-03T03:53:11.582Z,22.90
2019-04-03T03:55:40.086Z,22.10
2019-04-03T03:58:12.532Z,22.97
2019-04-03T04:00:41.971Z,22.47
2019-04-03T04:03:11.710Z,22.77
2019-04-03T04:05:41.128Z,21.87
2019-04-03T04:08:11.310Z,21.53
2019-04-03T04:10:41.383Z,21.40
2019-04-03T04:13:13.361Z,22.73
2019-04-03T04:15:41.464Z,21.37
2019-04-03T04:18:13.808Z,21.57
2019-04-03T04:20:42.180Z,21.83
2019-04-03T04:23:11.712Z,22.10
2019-04-03T04:25:43.465Z,22.80
2019-04-03T04:28:11.750Z,22.50
2019-04-03T04:30:42.536Z,23.90
2019-04-03T04:33:11.753Z,23.17
2019-04-03T04:35:41.313Z,22.13
2019-04-03T04:38:10.866Z,23.47
2019-04-03T04:40:39.855Z,23.33
2019-04-03T04:43:08.871Z,22.40
2019-04-03T04:45:37.722Z,22.77
2019-04-03T04:48:06.721Z,21.23
2019-04-03T04:50:35.398Z,21.60
2019-04-03T04:53:04.694Z,21.40
2019-04-03T04:55:34.999Z,21.47
2019-04-03T04:58:04.922Z,20.90
2019-04-03T05:00:34.334Z,22.27
2019-04-03T05:03:03.049Z,21.27
2019-04-03T05:05:31.786Z,21.50
2019-04-03T05:08:01.959Z,20.70
2019-04-03T05:10:31.130Z,22.90
2019-04-03T05:13:00.082Z,21.53
2019-04-03T05:15:29.010Z,23.47
2019-04-03T05:17:58.324Z,21.87
2019-04-03T05:20:27.305Z,23.43
2019-04-03T05:22:56.055Z,22.77
2019-04-03T05:25:24.978Z,23.93
2019-04-03T05:27:53.932Z,22.67
2019-04-03T05:30:36.663Z,22.93
2019-04-03T05:33:05.231Z,23.23
2019-04-03T05:35:34.042Z,22.80
2019-04-03T05:38:03.297Z,22.30
2019-04-03T05:40:32.248Z,22.97
2019-04-03T05:43:00.989Z,22.80
2019-04-03T05:45:30.231Z,23.10
2019-04-03T05:47:59.224Z,22.30
2019-04-03T05:50:28.274Z,24.40
2019-04-03T05:52:57.422Z,23.43
2019-04-03T05:55:26.129Z,24.43
2019-04-03T05:57:54.952Z,22.87
2019-04-03T06:00:24.202Z,22.57
2019-04-03T06:02:54.083Z,23.30
2019-04-03T06:05:23.875Z,22.70
2019-04-03T06:07:52.820Z,23.60
2019-04-03T06:10:21.589Z,24.23
2019-04-03T06:12:50.563Z,23.53
2019-04-03T06:15:21.816Z,22.57
2019-04-03T06:17:51.168Z,23.80
2019-04-03T06:20:20.020Z,22.47
2019-04-03T06:22:49.954Z,22.03
2019-04-03T06:25:21.956Z,22.60
2019-04-03T06:27:50.901Z,22.80
2019-04-03T06:30:20.097Z,23.90
2019-04-03T06:32:48.872Z,22.83
2019-04-03T06:35:17.650Z,24.00
2019-04-03T06:37:46.347Z,22.37
2019-04-03T06:40:15.445Z,21.17
2019-04-03T06:42:44.915Z,21.83
2019-04-03T06:45:16.010Z,20.93
2019-04-03T06:47:45.124Z,21.27
2019-04-03T06:50:16.918Z,22.10
2019-04-03T06:52:44.680Z,20.67
2019-04-03T06:55:13.759Z,20.50
2019-04-03T06:57:42.514Z,21.80
2019-04-03T07:00:11.883Z,22.57
2019-04-03T07:02:40.913Z,19.80
2019-04-03T07:05:10.993Z,21.27
2019-04-03T07:07:39.903Z,22.40
2019-04-03T07:10:09.740Z,20.50
2019-04-03T07:12:38.712Z,20.40
2019-04-03T07:15:07.825Z,18.73
2019-04-03T07:17:37.106Z,22.43
2019-04-03T07:20:13.703Z,21.70
2019-04-03T07:22:36.870Z,21.07
2019-04-03T07:25:06.578Z,22.50
2019-04-03T07:27:37.157Z,20.80
2019-04-03T07:30:07.472Z,20.33
2019-04-03T07:32:36.459Z,21.33
2019-04-03T07:35:09.370Z,19.60
2019-04-03T07:37:36.527Z,19.40
2019-04-03T07:40:06.956Z,20.87
2019-04-03T07:42:36.118Z,20.70
2019-04-03T07:45:06.071Z,20.13
2019-04-03T07:47:35.853Z,21.63
2019-04-03T07:50:06.695Z,20.03
2019-04-03T07:52:35.954Z,19.60
2019-04-03T07:55:06.034Z,17.47
2019-04-03T07:57:35.180Z,21.63
2019-04-03T08:00:07.064Z,21.20
2019-04-03T08:02:34.976Z,20.73
2019-04-03T08:05:05.059Z,20.63
2019-04-03T08:07:34.076Z,18.70
2019-04-03T08:10:02.795Z,18.73
2019-04-03T08:12:34.547Z,18.27
2019-04-03T08:15:02.432Z,20.63
2019-04-03T08:17:31.409Z,19.50
2019-04-03T08:20:00.333Z,19.83
2019-04-03T08:22:29.471Z,20.57
2019-04-03T08:24:59.941Z,21.27
2019-04-03T08:27:28.991Z,20.83
2019-04-03T08:29:57.982Z,20.30
2019-04-03T08:32:26.698Z,21.00
2019-04-03T08:34:55.544Z,20.37
2019-04-03T08:39:59.971Z,19.63
2019-04-03T08:42:32.178Z,19.97
2019-04-03T08:45:00.841Z,19.97
2019-04-03T08:47:29.857Z,18.63
2019-04-03T08:50:01.380Z,18.40
2019-04-03T08:52:29.574Z,18.77
2019-04-03T08:54:58.298Z,19.70
2019-04-03T08:57:27.249Z,19.43
2019-04-03T08:59:55.949Z,17.97
2019-04-03T09:02:25.277Z,19.47
2019-04-03T09:04:54.385Z,18.17
2019-04-03T09:07:24.932Z,17.97
2019-04-03T09:09:54.166Z,18.27
2019-04-03T09:12:22.869Z,17.67
2019-04-03T09:14:52.043Z,18.20
2019-04-03T09:17:21.168Z,17.97
2019-04-03T09:19:50.112Z,17.50
2019-04-03T09:22:21.612Z,17.87
2019-04-03T09:24:50.253Z,16.57
2019-04-03T09:27:19.767Z,16.97
2019-04-03T09:29:48.563Z,15.93
2019-04-03T09:32:17.589Z,16.13
2019-04-03T09:34:46.816Z,16.13
2019-04-03T09:37:17.610Z,15.43
2019-04-03T09:39:46.528Z,15.20
2019-04-03T09:42:15.528Z,15.87
2019-04-03T09:44:44.290Z,15.80
2019-04-03T09:47:13.000Z,16.67
2019-04-03T09:49:43.853Z,15.80
2019-04-03T09:52:12.837Z,15.80
2019-04-03T09:54:42.292Z,16.23
2019-04-03T09:57:11.094Z,15.73
2019-04-03T09:59:40.038Z,16.67
2019-04-03T10:02:09.275Z,17.70
2019-04-03T10:04:38.265Z,17.27
2019-04-03T10:07:07.231Z,17.20
2019-04-03T10:09:38.479Z,15.73
2019-04-03T10:12:06.903Z,15.80
2019-04-03T10:14:35.923Z,16.80
2019-04-03T10:17:06.169Z,17.30
2019-04-03T10:19:35.811Z,18.60
2019-04-03T10:22:05.073Z,18.30
2019-04-03T10:24:33.813Z,19.73
2019-04-03T10:27:02.729Z,20.53
2019-04-03T10:29:31.450Z,19.87
2019-04-03T10:32:00.544Z,20.23
2019-04-03T10:34:29.297Z,21.70
2019-04-03T10:36:58.103Z,22.10
2019-04-03T10:39:27.130Z,21.87
2019-04-03T10:41:56.155Z,20.77
2019-04-03T10:44:25.256Z,21.77
2019-04-03T10:46:54.427Z,22.70
2019-04-03T10:49:23.133Z,21.87
2019-04-03T10:51:52.427Z,22.80
2019-04-03T10:54:21.916Z,23.63
2019-04-03T10:56:51.665Z,24.37
2019-04-03T10:59:20.709Z,22.80
2019-04-03T11:01:50.076Z,23.60
2019-04-03T11:04:19.033Z,23.53
2019-04-03T11:06:48.189Z,22.43
2019-04-03T11:09:16.902Z,22.23
2019-04-03T11:11:45.633Z,21.87
2019-04-03T11:14:14.395Z,24.50
2019-04-03T11:16:45.984Z,23.87
2019-04-03T11:19:13.802Z,21.63
2019-04-03T11:21:44.075Z,22.90
2019-04-03T11:24:14.605Z,22.37
2019-04-03T11:26:44.066Z,20.53
2019-04-03T11:29:13.084Z,20.50
2019-04-03T11:31:43.254Z,21.17
2019-04-03T11:34:12.566Z,21.57
2019-04-03T11:36:41.794Z,19.57
2019-04-03T11:39:15.056Z,19.53
2019-04-03T11:41:41.651Z,19.87
2019-04-03T11:44:10.904Z,19.43
2019-04-03T11:46:39.809Z,20.63
2019-04-03T11:49:09.164Z,19.23
2019-04-03T11:51:38.509Z,19.67
2019-04-03T11:54:08.631Z,18.13
2019-04-03T11:56:38.038Z,18.10
2019-04-03T11:59:07.441Z,17.77
2019-04-03T12:01:36.409Z,17.47
2019-04-03T12:04:05.463Z,18.37
2019-04-03T12:06:34.807Z,17.40
2019-04-03T12:09:05.581Z,16.93
2019-04-03T12:11:37.624Z,17.63
2019-04-03T12:14:04.950Z,17.80
2019-04-03T12:16:33.890Z,16.63
2019-04-03T12:19:04.442Z,17.07
2019-04-03T12:21:33.382Z,16.27
2019-04-03T12:24:02.310Z,16.80
2019-04-03T12:26:31.293Z,17.67
2019-04-03T12:29:00.250Z,18.13
2019-04-03T12:31:30.776Z,18.73
2019-04-03T12:34:04.428Z,19.03
2019-04-03T12:36:30.276Z,18.03
2019-04-03T12:38:59.219Z,20.17
2019-04-03T12:41:28.106Z,20.17
2019-04-03T12:43:57.120Z,19.77
2019-04-03T12:46:40.881Z,19.53
2019-04-03T12:49:08.896Z,19.10
2019-04-03T12:51:37.992Z,20.57
2019-04-03T12:54:06.778Z,18.50
2019-04-03T12:56:36.020Z,19.07
2019-04-03T12:59:07.411Z,18.63
2019-04-03T13:01:35.598Z,19.47
2019-04-03T13:04:04.815Z,18.97
2019-04-03T13:06:33.803Z,18.27
2019-04-03T13:09:02.899Z,16.50
2019-04-03T13:11:33.447Z,15.83
2019-04-03T13:14:02.623Z,14.70
2019-04-03T13:16:31.707Z,13.97
2019-04-03T13:19:00.664Z,11.97
2019-04-03T13:21:29.705Z,12.40
2019-04-03T13:23:58.764Z,12.87
2019-04-03T13:26:27.685Z,9.50
2019-04-03T13:28:56.924Z,9.57
2019-04-03T13:31:26.249Z,9.30
2019-04-03T13:33:58.291Z,7.07
2019-04-03T13:36:27.687Z,7.40
2019-04-03T13:39:00.302Z,7.73
2019-04-03T13:41:27.365Z,7.40
2019-04-03T13:43:56.144Z,6.93
2019-04-03T13:46:25.660Z,6.10
2019-04-03T13:48:54.911Z,6.10
2019-04-03T13:51:26.689Z,5.47
2019-04-03T13:53:55.191Z,5.40
2019-04-03T13:56:24.649Z,6.53
2019-04-03T13:58:54.702Z,7.23
2019-04-03T14:01:23.888Z,6.57
2019-04-03T14:03:54.212Z,6.80
2019-04-03T14:06:22.988Z,6.50
2019-04-03T15:16:48.741Z,6.90
2019-04-03T15:19:17.951Z,18.63
2019-04-03T15:21:46.986Z,19.10
2019-04-03T15:24:16.443Z,19.20
2019-04-03T15:26:45.541Z,19.50
2019-04-03T15:39:59.144Z,20.50
2019-04-03T15:42:28.078Z,19.73
2019-04-03T15:45:05.675Z,19.07
2019-04-03T15:47:38.742Z,19.33
2019-04-03T15:50:06.656Z,19.63
2019-04-03T15:52:35.999Z,19.30
2019-04-03T18:05:06.354Z,18.50
2019-04-03T18:07:37.471Z,14.03
2019-04-03T18:10:17.237Z,15.10
2019-04-03T18:13:25.769Z,14.97
2019-04-03T18:16:08.714Z,14.20
2019-04-03T18:18:27.524Z,13.67
2019-04-03T18:20:56.579Z,13.77
2019-04-03T18:23:25.646Z,13.70
2019-04-03T18:25:54.598Z,13.77
2019-04-03T18:28:23.524Z,14.10
2019-04-03T18:30:52.602Z,14.87
2019-04-03T18:33:23.345Z,13.97
2019-04-03T18:35:52.559Z,14.30
2019-04-03T18:38:21.557Z,15.63
2019-04-03T18:40:51.118Z,15.73
2019-04-03T18:43:21.898Z,14.73
2019-04-03T18:45:50.831Z,16.33
2019-04-03T18:48:19.783Z,16.03
2019-04-03T18:50:48.741Z,15.83
2019-04-03T18:53:17.764Z,15.73
2019-04-03T18:55:46.854Z,16.60
2019-04-03T18:58:15.796Z,16.57
2019-04-03T19:00:44.505Z,16.80
2019-04-03T19:03:13.487Z,15.97
2019-04-03T19:05:44.025Z,16.57
2019-04-03T19:08:13.699Z,16.83
2019-04-03T19:10:43.913Z,18.83
2019-04-03T19:13:14.921Z,17.83
2019-04-03T19:15:48.252Z,17.53
2019-04-03T19:18:19.781Z,18.67
2019-04-03T19:20:48.417Z,19.23
2019-04-03T19:23:17.371Z,19.90
2019-04-03T19:25:46.816Z,22.23
2019-04-03T19:28:15.731Z,22.80
2019-04-03T19:30:44.898Z,21.80
2019-04-03T19:33:14.042Z,20.57
2019-04-03T19:35:43.352Z,21.63
2019-04-03T19:38:13.463Z,22.77
2019-04-03T19:40:42.470Z,23.17
2019-04-03T19:43:11.179Z,24.40
2019-04-03T19:46:26.486Z,27.00
2019-04-03T19:49:08.497Z,23.67
2019-04-03T19:51:38.038Z,25.53
2019-04-03T19:54:26.873Z,25.57
2019-04-03T19:56:56.434Z,25.47
2019-04-03T19:59:26.019Z,26.33
2019-04-03T20:01:55.039Z,25.30
2019-04-03T20:04:24.075Z,25.07
2019-04-03T20:06:58.524Z,27.03
2019-04-03T20:09:27.964Z,25.20
2019-04-03T20:12:01.373Z,26.37
2019-04-03T20:14:38.216Z,25.83
2019-04-03T20:17:21.068Z,26.30
2019-04-03T20:19:57.870Z,24.43
2019-04-03T20:22:27.543Z,26.80
2019-04-03T20:25:00.232Z,25.70
2019-04-03T20:27:27.110Z,26.30
2019-04-03T20:29:56.099Z,26.57
2019-04-03T20:32:25.217Z,25.10
2019-04-03T20:34:54.139Z,24.63
2019-04-03T20:37:25.905Z,25.03
2019-04-03T20:39:53.970Z,24.73
2019-04-03T20:42:22.932Z,25.77
2019-04-03T20:45:05.096Z,28.53
2019-04-03T20:47:34.089Z,28.87
2019-04-03T20:50:06.617Z,28.63
2019-04-03T20:52:33.904Z,28.07
2019-04-03T20:55:02.866Z,28.87
2019-04-03T20:57:33.196Z,27.50
2019-04-03T21:00:03.378Z,28.50
2019-04-03T21:02:32.511Z,30.10
2019-04-03T21:08:31.465Z,31.43
2019-04-03T21:11:03.150Z,32.23
2019-04-03T21:13:35.170Z,31.23
2019-04-03T21:16:18.054Z,31.47
2019-04-03T21:19:21.443Z,32.27
2019-04-03T21:22:01.746Z,32.00
2019-04-03T21:24:48.018Z,31.43
2019-04-03T21:27:39.644Z,32.90
2019-04-03T21:30:24.783Z,31.67
2019-04-03T21:33:01.560Z,32.40
2019-04-03T21:35:31.455Z,31.83
2019-04-03T21:38:00.482Z,32.50
2019-04-03T21:40:29.197Z,31.83
2019-04-03T21:42:58.503Z,32.33
2019-04-03T21:45:27.214Z,30.67
2019-04-03T21:47:56.280Z,32.27
2019-04-03T21:50:25.302Z,32.50
2019-04-03T21:52:54.394Z,32.10
2019-04-03T21:55:23.200Z,31.73
2019-04-03T21:57:51.914Z,32.07
2019-04-03T22:00:48.633Z,32.43
2019-04-03T22:03:19.399Z,32.03
2019-04-03T22:05:48.572Z,33.60
2019-04-03T22:08:17.620Z,32.60
2019-04-03T22:10:46.535Z,30.83
2019-04-03T22:13:15.487Z,33.30
2019-04-03T22:15:45.578Z,32.57
2019-04-03T22:18:15.010Z,31.43
2019-04-03T22:20:43.964Z,32.13
2019-04-03T22:23:12.946Z,32.73
2019-04-03T22:25:41.929Z,32.57
2019-04-03T22:28:16.669Z,32.53
2019-04-03T22:30:55.546Z,33.10
2019-04-03T22:33:25.916Z,32.63
2019-04-03T22:36:03.304Z,33.53
2019-04-03T22:38:43.276Z,32.23
2019-04-03T22:41:22.709Z,31.70
2019-04-03T22:43:52.059Z,33.20
2019-04-03T22:46:22.105Z,32.87
2019-04-03T22:48:51.565Z,34.63
2019-04-03T22:51:20.713Z,33.30
2019-04-03T22:53:49.425Z,32.43
2019-04-03T22:56:18.201Z,32.30
2019-04-03T22:58:47.104Z,33.60
2019-04-03T23:01:16.121Z,35.33
2019-04-03T23:03:45.314Z,33.93
2019-04-03T23:06:14.322Z,34.60
2019-04-03T23:08:43.311Z,32.73
2019-04-03T23:11:12.296Z,33.67
2019-04-03T23:13:41.303Z,32.77
2019-04-03T23:16:11.564Z,34.57
2019-04-03T23:18:40.442Z,36.30
2019-04-03T23:21:09.458Z,36.23
2019-04-03T23:23:39.053Z,34.53
2019-04-03T23:26:08.034Z,37.20
2019-04-03T23:28:36.979Z,36.53
2019-04-03T23:31:06.082Z,37.43
2019-04-03T23:33:35.042Z,36.87
2019-04-03T23:36:03.748Z,37.87
2019-04-03T23:38:32.773Z,36.83
2019-04-03T23:41:01.792Z,37.17
2019-04-03T23:43:30.845Z,37.43
2019-04-03T23:45:59.578Z,36.70
2019-04-03T23:48:28.294Z,37.30
2019-04-03T23:50:57.248Z,41.20
2019-04-03T23:53:26.184Z,41.93
2019-04-03T23:55:55.440Z,42.27
2019-04-03T23:58:24.162Z,43.07
